createdAt,value
2018-12-19T00:00:50.152Z,1.19
2018-12-19T00:03:17.685Z,1.20
2018-12-19T00:05:45.332Z,1.20
2018-12-19T00:08:12.858Z,1.15
2018-12-19T00:10:40.357Z,1.14
2018-12-19T00:13:09.793Z,1.15
2018-12-19T00:15:37.317Z,1.10
2018-12-19T00:18:04.833Z,1.10
2018-12-19T00:20:32.405Z,1.08
2018-12-19T00:22:59.928Z,1.12
2018-12-19T00:25:27.457Z,1.09
2018-12-19T00:27:54.995Z,1.06
2018-12-19T00:30:22.535Z,1.05
2018-12-19T00:32:50.106Z,1.02
2018-12-19T00:35:17.655Z,1.03
2018-12-19T00:37:45.214Z,1.02
2018-12-19T00:40:12.782Z,1.04
2018-12-19T00:42:40.662Z,1.04
2018-12-19T00:45:08.331Z,1.04
2018-12-19T00:47:35.843Z,1.03
2018-12-19T00:50:03.527Z,1.01
2018-12-19T00:52:31.502Z,1.03
2018-12-19T00:54:59.057Z,1.04
2018-12-19T00:57:26.628Z,1.03
2018-12-19T00:59:54.180Z,1.05
2018-12-19T01:02:21.738Z,1.07
2018-12-19T01:04:49.261Z,1.07
2018-12-19T01:07:16.801Z,1.06
2018-12-19T01:09:44.424Z,1.06
2018-12-19T01:12:11.935Z,1.05
2018-12-19T01:14:39.861Z,1.03
2018-12-19T01:17:07.421Z,1.04
2018-12-19T01:19:34.967Z,1.02
2018-12-19T01:22:02.465Z,1.04
2018-12-19T01:24:30.085Z,1.05
2018-12-19T01:26:57.658Z,1.06
2018-12-19T01:29:25.163Z,1.06
2018-12-19T01:31:52.768Z,1.08
2018-12-19T01:34:20.346Z,1.08
2018-12-19T01:36:47.866Z,1.07
2018-12-19T01:39:15.649Z,1.09
2018-12-19T01:41:43.253Z,1.11
2018-12-19T01:44:10.878Z,1.12
2018-12-19T01:46:38.442Z,1.14
2018-12-19T01:49:05.999Z,1.15
2018-12-19T01:51:33.493Z,1.13
2018-12-19T01:54:01.041Z,1.14
2018-12-19T01:56:28.602Z,1.15
2018-12-19T01:58:56.128Z,1.16
2018-12-19T02:01:23.715Z,1.16
2018-12-19T02:03:51.217Z,1.17
2018-12-19T02:06:18.815Z,1.15
2018-12-19T02:08:46.374Z,1.16
2018-12-19T02:11:14.038Z,1.16
2018-12-19T02:13:41.965Z,1.12
2018-12-19T02:16:09.495Z,1.12
2018-12-19T02:18:37.229Z,1.14
2018-12-19T02:21:04.780Z,1.16
2018-12-19T02:23:32.388Z,1.14
2018-12-19T02:25:59.921Z,1.14
2018-12-19T02:28:27.469Z,1.12
2018-12-19T02:30:55.127Z,1.12
2018-12-19T02:33:22.633Z,1.13
2018-12-19T02:35:50.249Z,1.12
2018-12-19T02:38:17.888Z,1.11
2018-12-19T02:40:45.469Z,1.10
2018-12-19T02:43:14.274Z,1.11
2018-12-19T02:45:41.819Z,1.10
2018-12-19T02:48:09.321Z,1.08
2018-12-19T02:50:36.832Z,1.10
2018-12-19T02:53:04.398Z,1.09
2018-12-19T02:55:31.892Z,1.09
2018-12-19T02:57:59.414Z,1.08
2018-12-19T03:00:26.977Z,1.08
2018-12-19T03:02:54.540Z,1.06
2018-12-19T03:05:22.094Z,1.08
2018-12-19T03:07:49.653Z,1.05
2018-12-19T03:10:17.151Z,1.02
2018-12-19T03:12:44.673Z,1.03
2018-12-19T03:15:12.178Z,1.06
2018-12-19T03:17:39.796Z,1.04
2018-12-19T03:20:07.493Z,1.03
2018-12-19T03:22:35.115Z,1.06
2018-12-19T03:25:02.676Z,1.04
2018-12-19T03:27:30.175Z,1.04
2018-12-19T03:29:57.715Z,1.02
2018-12-19T03:32:25.257Z,0.99
2018-12-19T03:34:52.950Z,1.02
2018-12-19T03:37:20.586Z,0.99
2018-12-19T03:39:50.434Z,1.01
2018-12-19T03:42:17.754Z,0.99
2018-12-19T03:44:45.313Z,1.01
2018-12-19T03:47:13.490Z,0.99
2018-12-19T03:49:41.259Z,0.98
2018-12-19T03:52:08.810Z,1.00
2018-12-19T03:54:36.320Z,0.99
2018-12-19T03:57:05.318Z,0.96
2018-12-19T03:59:32.851Z,0.95
2018-12-19T04:02:00.413Z,0.96
2018-12-19T04:04:27.909Z,0.95
2018-12-19T04:06:55.496Z,0.96
2018-12-19T04:09:22.996Z,0.95
2018-12-19T04:11:50.619Z,0.96
2018-12-19T04:14:18.114Z,0.94
2018-12-19T04:16:45.655Z,0.95
2018-12-19T04:19:13.301Z,0.95
2018-12-19T04:21:40.861Z,0.95
2018-12-19T04:24:08.363Z,0.95
2018-12-19T04:26:35.879Z,0.95
2018-12-19T04:29:03.389Z,0.97
2018-12-19T04:31:30.897Z,0.96
2018-12-19T04:33:58.482Z,0.97
2018-12-19T04:36:26.014Z,0.99
2018-12-19T04:38:53.584Z,1.01
2018-12-19T04:41:21.137Z,1.01
2018-12-19T04:43:48.652Z,1.02
2018-12-19T04:46:16.159Z,1.02
2018-12-19T04:48:43.721Z,1.03
2018-12-19T04:51:11.274Z,1.05
2018-12-19T04:53:39.590Z,1.04
2018-12-19T04:56:07.133Z,1.07
2018-12-19T04:58:34.696Z,1.09
2018-12-19T05:01:02.341Z,1.12
2018-12-19T05:03:29.893Z,1.13
2018-12-19T05:05:57.429Z,1.15
2018-12-19T05:08:24.956Z,1.16
2018-12-19T05:10:52.574Z,1.17
2018-12-19T05:13:20.133Z,1.18
2018-12-19T05:15:47.632Z,1.20
2018-12-19T05:18:15.120Z,1.24
2018-12-19T05:20:42.646Z,1.24
2018-12-19T05:23:10.163Z,1.27
2018-12-19T05:25:37.670Z,1.28
2018-12-19T05:28:05.292Z,1.28
2018-12-19T05:30:32.989Z,1.30
2018-12-19T05:33:00.508Z,1.30
2018-12-19T05:35:28.073Z,1.33
2018-12-19T05:37:55.633Z,1.34
2018-12-19T05:40:23.148Z,1.38
2018-12-19T05:42:50.754Z,1.38
2018-12-19T05:45:18.415Z,1.40
2018-12-19T05:47:45.978Z,1.43
2018-12-19T05:50:14.635Z,1.42
2018-12-19T05:52:42.307Z,1.43
2018-12-19T05:55:10.094Z,1.43
2018-12-19T05:57:37.650Z,1.43
2018-12-19T06:00:07.280Z,1.42
2018-12-19T06:02:34.926Z,1.40
2018-12-19T06:05:02.684Z,1.40
2018-12-19T06:07:30.186Z,1.40
2018-12-19T06:09:57.853Z,1.39
2018-12-19T06:12:25.502Z,1.40
2018-12-19T06:14:53.130Z,1.40
2018-12-19T06:17:20.622Z,1.39
2018-12-19T06:19:48.254Z,1.39
2018-12-19T06:22:15.810Z,1.39
2018-12-19T06:24:43.378Z,1.40
2018-12-19T06:27:10.933Z,1.40
2018-12-19T06:29:38.437Z,1.40
2018-12-19T06:32:06.049Z,1.39
2018-12-19T06:34:33.559Z,1.40
2018-12-19T06:37:01.068Z,1.38
2018-12-19T06:39:28.802Z,1.38
2018-12-19T06:41:56.296Z,1.38
2018-12-19T06:44:23.789Z,1.38
2018-12-19T06:46:51.411Z,1.39
2018-12-19T06:49:18.974Z,1.39
2018-12-19T06:51:46.644Z,1.37
2018-12-19T06:54:14.194Z,1.36
2018-12-19T06:56:41.754Z,1.38
2018-12-19T06:59:09.245Z,1.39
2018-12-19T07:01:37.041Z,1.36
2018-12-19T07:04:04.572Z,1.34
2018-12-19T07:06:32.237Z,1.33
2018-12-19T07:08:59.807Z,1.33
2018-12-19T07:11:27.378Z,1.32
2018-12-19T07:13:54.913Z,1.32
2018-12-19T07:16:22.447Z,1.30
2018-12-19T07:18:49.944Z,1.31
2018-12-19T07:21:17.597Z,1.32
2018-12-19T07:23:45.172Z,1.32
2018-12-19T07:26:12.682Z,1.32
2018-12-19T07:28:40.249Z,1.34
2018-12-19T07:31:07.802Z,1.35
2018-12-19T07:33:35.361Z,1.36
2018-12-19T07:36:02.857Z,1.38
2018-12-19T07:38:30.407Z,1.38
2018-12-19T07:40:57.944Z,1.38
2018-12-19T07:43:25.501Z,1.40
2018-12-19T07:45:53.165Z,1.38
2018-12-19T07:48:20.902Z,1.41
2018-12-19T07:50:48.405Z,1.40
2018-12-19T07:53:15.943Z,1.43
2018-12-19T07:55:43.513Z,1.42
2018-12-19T07:58:11.034Z,1.44
2018-12-19T08:00:38.584Z,1.48
2018-12-19T08:03:06.184Z,1.48
2018-12-19T08:05:33.763Z,1.46
2018-12-19T08:08:01.267Z,1.48
2018-12-19T08:10:28.870Z,1.46
2018-12-19T08:12:56.431Z,1.49
2018-12-19T08:15:23.983Z,1.48
2018-12-19T08:17:51.477Z,1.52
2018-12-19T08:20:18.977Z,1.47
2018-12-19T08:22:46.464Z,1.51
2018-12-19T08:25:13.975Z,1.52
2018-12-19T08:27:41.586Z,1.50
2018-12-19T08:30:09.736Z,1.50
2018-12-19T08:32:37.331Z,1.55
2018-12-19T08:35:06.103Z,1.54
2018-12-19T08:37:33.775Z,1.51
2018-12-19T08:40:01.326Z,1.52
2018-12-19T08:42:28.911Z,1.55
2018-12-19T08:44:56.547Z,1.53
2018-12-19T08:47:24.252Z,1.57
2018-12-19T08:49:51.801Z,1.62
2018-12-19T08:52:19.372Z,1.59
2018-12-19T08:54:46.902Z,1.62
2018-12-19T08:57:14.490Z,1.64
2018-12-19T08:59:42.122Z,1.67
2018-12-19T09:02:09.676Z,1.75
2018-12-19T09:04:37.338Z,1.72
2018-12-19T09:07:04.868Z,1.79
2018-12-19T09:09:32.425Z,1.79
2018-12-19T09:11:59.942Z,1.83
2018-12-19T09:14:27.493Z,1.83
2018-12-19T09:16:55.000Z,1.83
2018-12-19T09:19:22.537Z,1.83
2018-12-19T09:21:50.077Z,1.88
2018-12-19T09:24:17.610Z,1.84
2018-12-19T09:26:45.114Z,1.87
2018-12-19T09:29:12.731Z,1.82
2018-12-19T09:31:42.444Z,1.79
2018-12-19T09:34:09.953Z,1.79
2018-12-19T09:36:37.571Z,1.76
2018-12-19T09:39:06.349Z,1.80
2018-12-19T09:41:34.019Z,1.80
2018-12-19T09:44:02.115Z,1.78
2018-12-19T09:46:29.680Z,1.81
2018-12-19T09:48:57.319Z,1.81
2018-12-19T09:51:24.826Z,1.84
2018-12-19T09:53:52.405Z,1.84
2018-12-19T09:56:19.925Z,1.84
2018-12-19T09:58:47.439Z,1.83
2018-12-19T10:01:14.979Z,1.92
2018-12-19T10:03:42.505Z,1.91
2018-12-19T10:06:10.050Z,1.92
2018-12-19T10:08:37.554Z,1.98
2018-12-19T10:11:05.143Z,2.06
2018-12-19T10:13:32.645Z,2.10
2018-12-19T10:16:00.262Z,2.12
2018-12-19T10:18:27.822Z,2.16
2018-12-19T10:20:55.392Z,2.23
2018-12-19T10:23:22.896Z,2.24
2018-12-19T10:25:52.387Z,2.23
2018-12-19T10:28:21.838Z,2.31
2018-12-19T10:30:49.417Z,2.28
2018-12-19T10:33:16.980Z,2.28
2018-12-19T10:35:44.534Z,2.29
2018-12-19T10:38:12.064Z,2.36
2018-12-19T10:40:39.566Z,2.38
2018-12-19T10:43:07.109Z,2.38
2018-12-19T10:45:34.610Z,2.38
2018-12-19T10:48:02.495Z,2.41
2018-12-19T10:50:30.096Z,2.47
2018-12-19T10:52:57.593Z,2.48
2018-12-19T10:55:25.216Z,2.49
2018-12-19T10:57:52.793Z,2.47
2018-12-19T11:00:25.964Z,2.50
2018-12-19T11:02:53.497Z,2.53
2018-12-19T11:05:21.001Z,2.56
2018-12-19T11:07:48.651Z,2.63
2018-12-19T11:10:16.218Z,2.63
2018-12-19T11:12:43.727Z,2.64
2018-12-19T11:15:11.224Z,2.66
2018-12-19T11:17:38.902Z,2.74
2018-12-19T11:20:08.981Z,2.80
2018-12-19T11:22:36.520Z,2.81
2018-12-19T11:25:04.999Z,2.78
2018-12-19T11:27:32.561Z,2.82
2018-12-19T11:30:00.071Z,2.86
2018-12-19T11:32:27.629Z,2.87
2018-12-19T11:34:55.193Z,2.82
2018-12-19T11:37:22.755Z,2.87
2018-12-19T11:39:50.266Z,2.86
2018-12-19T11:42:17.808Z,2.79
2018-12-19T11:44:45.330Z,2.79
2018-12-19T11:47:12.903Z,2.85
2018-12-19T11:49:40.403Z,2.87
2018-12-19T11:52:07.905Z,2.87
2018-12-19T11:54:35.466Z,2.88
2018-12-19T11:57:03.104Z,2.91
2018-12-19T11:59:30.691Z,2.87
2018-12-19T12:01:58.247Z,2.93
2018-12-19T12:04:25.821Z,2.94
2018-12-19T12:06:53.363Z,2.96
2018-12-19T12:09:20.881Z,2.95
2018-12-19T12:11:48.386Z,2.98
2018-12-19T12:14:15.920Z,3.01
2018-12-19T12:16:43.454Z,2.98
2018-12-19T12:19:10.965Z,2.99
2018-12-19T12:21:38.466Z,3.05
2018-12-19T12:24:06.091Z,3.11
2018-12-19T12:26:33.755Z,3.10
2018-12-19T12:29:01.266Z,3.12
2018-12-19T12:31:28.794Z,3.12
2018-12-19T12:33:56.292Z,3.09
2018-12-19T12:36:23.819Z,3.14
2018-12-19T12:38:51.346Z,3.15
2018-12-19T12:41:18.841Z,3.13
2018-12-19T12:43:46.332Z,3.11
2018-12-19T12:46:13.834Z,3.13
2018-12-19T12:48:41.336Z,3.22
2018-12-19T12:51:08.878Z,3.22
2018-12-19T12:53:36.515Z,3.20
2018-12-19T12:56:04.170Z,3.21
2018-12-19T12:58:31.692Z,3.33
2018-12-19T13:00:59.197Z,3.27
2018-12-19T13:03:26.741Z,3.21
2018-12-19T13:05:54.304Z,3.24
2018-12-19T13:08:21.858Z,3.27
2018-12-19T13:10:49.353Z,3.32
2018-12-19T13:13:16.870Z,3.31
2018-12-19T13:15:45.632Z,3.33
2018-12-19T13:18:14.639Z,3.35
2018-12-19T13:20:42.534Z,3.38
2018-12-19T13:23:10.058Z,3.36
2018-12-19T13:25:37.561Z,3.35
2018-12-19T13:28:05.111Z,3.33
2018-12-19T13:30:32.662Z,3.38
2018-12-19T13:33:00.222Z,3.40
2018-12-19T13:35:28.274Z,3.45
2018-12-19T13:37:55.778Z,3.44
2018-12-19T13:40:23.322Z,3.46
2018-12-19T13:42:50.872Z,3.48
2018-12-19T13:45:18.433Z,3.42
2018-12-19T13:47:46.043Z,3.45
2018-12-19T13:50:13.601Z,3.45
2018-12-19T13:52:41.216Z,3.45
2018-12-19T13:55:08.793Z,3.49
2018-12-19T13:57:36.336Z,3.51
2018-12-19T14:00:06.701Z,3.52
2018-12-19T14:02:34.189Z,3.54
2018-12-19T14:05:01.785Z,3.52
2018-12-19T14:07:29.346Z,3.52
2018-12-19T14:09:56.869Z,3.53
2018-12-19T14:12:24.383Z,3.54
2018-12-19T14:14:51.894Z,3.57
2018-12-19T14:17:19.708Z,3.58
2018-12-19T14:19:47.248Z,3.56
2018-12-19T14:22:15.319Z,3.58
2018-12-19T14:24:42.846Z,3.58
2018-12-19T14:27:10.449Z,3.53
2018-12-19T14:29:38.026Z,3.57
2018-12-19T14:32:05.585Z,3.53
2018-12-19T14:34:33.228Z,3.53
2018-12-19T14:37:00.819Z,3.52
2018-12-19T14:39:28.386Z,3.49
2018-12-19T14:41:56.003Z,3.52
2018-12-19T14:44:23.586Z,3.52
2018-12-19T14:46:51.143Z,3.46
2018-12-19T14:49:18.676Z,3.49
2018-12-19T14:51:46.271Z,3.48
2018-12-19T14:54:13.773Z,3.48
2018-12-19T14:56:41.290Z,3.51
2018-12-19T14:59:08.827Z,3.49
2018-12-19T15:01:36.362Z,3.47
2018-12-19T15:04:03.914Z,3.49
2018-12-19T15:06:31.415Z,3.48
2018-12-19T15:08:58.973Z,3.50
2018-12-19T15:11:27.084Z,3.52
2018-12-19T15:13:54.731Z,3.54
2018-12-19T15:16:23.041Z,3.52
2018-12-19T15:18:50.617Z,3.52
2018-12-19T15:21:18.703Z,3.56
2018-12-19T15:23:46.266Z,3.59
2018-12-19T15:26:13.759Z,3.65
2018-12-19T15:28:41.385Z,3.61
2018-12-19T15:31:08.922Z,3.60
2018-12-19T15:33:36.444Z,3.56
2018-12-19T15:36:04.191Z,3.54
2018-12-19T15:38:31.826Z,3.53
2018-12-19T15:40:59.385Z,3.54
2018-12-19T15:43:26.981Z,3.57
2018-12-19T15:45:54.489Z,3.57
2018-12-19T15:48:21.990Z,3.55
2018-12-19T15:50:49.493Z,3.58
2018-12-19T15:53:17.116Z,3.55
2018-12-19T15:55:44.633Z,3.59
2018-12-19T15:58:12.136Z,3.58
2018-12-19T16:00:39.733Z,3.59
2018-12-19T16:03:07.338Z,3.60
2018-12-19T16:05:34.888Z,3.58
2018-12-19T16:08:02.454Z,3.60
2018-12-19T16:10:29.974Z,3.56
2018-12-19T16:12:57.580Z,3.55
2018-12-19T16:15:25.092Z,3.57
2018-12-19T16:17:52.625Z,3.60
2018-12-19T16:20:20.250Z,3.59
2018-12-19T16:22:47.882Z,3.65
2018-12-19T16:25:15.921Z,3.64
2018-12-19T16:27:44.085Z,3.64
2018-12-19T16:30:11.654Z,3.64
2018-12-19T16:32:39.174Z,3.66
2018-12-19T16:35:06.776Z,3.65
2018-12-19T16:37:34.413Z,3.62
2018-12-19T16:40:01.960Z,3.65
2018-12-19T16:42:29.515Z,3.64
2018-12-19T16:44:57.119Z,3.67
2018-12-19T16:47:24.637Z,3.66
2018-12-19T16:49:52.231Z,3.63
2018-12-19T16:52:19.721Z,3.64
2018-12-19T16:54:47.289Z,3.68
2018-12-19T16:57:14.801Z,3.66
2018-12-19T16:59:42.408Z,3.66
2018-12-19T17:02:09.948Z,3.67
2018-12-19T17:04:37.561Z,3.67
2018-12-19T17:07:05.115Z,3.65
2018-12-19T17:09:32.637Z,3.68
2018-12-19T17:12:00.261Z,3.68
2018-12-19T17:14:27.807Z,3.71
2018-12-19T17:16:55.362Z,3.73
2018-12-19T17:19:22.871Z,3.71
2018-12-19T17:21:50.375Z,3.71
2018-12-19T17:24:17.932Z,3.71
2018-12-19T17:26:45.802Z,3.74
2018-12-19T17:29:13.316Z,3.75
2018-12-19T17:31:40.831Z,3.75
2018-12-19T17:34:08.328Z,3.76
2018-12-19T17:36:36.041Z,3.75
2018-12-19T17:39:05.561Z,3.77
2018-12-19T17:41:33.111Z,3.73
2018-12-19T17:44:00.621Z,3.75
2018-12-19T17:46:28.334Z,3.73
2018-12-19T17:48:55.846Z,3.73
2018-12-19T17:51:23.357Z,3.74
2018-12-19T17:53:50.875Z,3.78
2018-12-19T17:56:18.388Z,3.75
2018-12-19T17:58:45.933Z,3.76
2018-12-19T18:01:13.495Z,3.73
2018-12-19T18:03:41.044Z,3.74
2018-12-19T18:06:08.553Z,3.75
2018-12-19T18:08:36.059Z,3.71
2018-12-19T18:11:03.594Z,3.74
2018-12-19T18:13:31.186Z,3.73
2018-12-19T18:15:58.847Z,3.74
2018-12-19T18:18:26.424Z,3.77
2018-12-19T18:20:53.992Z,3.73
2018-12-19T18:23:21.638Z,3.74
2018-12-19T18:25:49.192Z,3.74
2018-12-19T18:28:16.780Z,3.74
2018-12-19T18:30:44.377Z,3.78
2018-12-19T18:33:11.903Z,3.80
2018-12-19T18:35:39.503Z,3.82
2018-12-19T18:38:07.004Z,3.80
2018-12-19T18:40:34.520Z,3.78
2018-12-19T18:43:02.114Z,3.78
2018-12-19T18:45:29.829Z,3.76
2018-12-19T18:47:57.436Z,3.78
2018-12-19T18:50:24.992Z,3.80
2018-12-19T18:52:53.062Z,3.74
2018-12-19T18:55:20.580Z,3.77
2018-12-19T18:57:48.280Z,3.67
2018-12-19T19:00:17.874Z,3.75
2018-12-19T19:02:45.435Z,3.78
2018-12-19T19:05:13.176Z,3.79
2018-12-19T19:07:40.799Z,3.80
2018-12-19T19:10:08.574Z,3.68
2018-12-19T19:12:36.106Z,3.69
2018-12-19T19:15:07.337Z,3.75
2018-12-19T19:17:34.850Z,3.67
2018-12-19T19:20:02.471Z,3.70
2018-12-19T19:22:30.047Z,3.78
2018-12-19T19:24:57.550Z,3.75
2018-12-19T19:27:25.123Z,3.75
2018-12-19T19:29:52.655Z,3.74
2018-12-19T19:32:20.170Z,3.77
2018-12-19T19:34:47.673Z,3.75
2018-12-19T19:37:15.190Z,3.76
2018-12-19T19:39:42.755Z,3.77
2018-12-19T19:42:10.445Z,3.77
2018-12-19T19:44:38.004Z,3.75
2018-12-19T19:47:05.656Z,3.78
2018-12-19T19:49:33.271Z,3.75
2018-12-19T19:52:00.791Z,3.79
2018-12-19T19:54:28.955Z,3.81
2018-12-19T19:56:56.485Z,3.78
2018-12-19T19:59:24.480Z,3.79
2018-12-19T20:01:52.028Z,3.78
2018-12-19T20:04:19.579Z,3.77
2018-12-19T20:06:47.143Z,3.75
2018-12-19T20:09:14.641Z,3.80
2018-12-19T20:11:42.326Z,3.79
2018-12-19T20:14:09.841Z,3.81
2018-12-19T20:19:33.710Z,3.81
2018-12-19T20:22:01.272Z,3.77
2018-12-19T20:24:28.773Z,3.78
2018-12-19T20:26:56.336Z,3.85
2018-12-19T20:29:23.850Z,3.78
2018-12-19T20:31:51.384Z,3.81
2018-12-19T20:34:18.944Z,3.84
2018-12-19T20:36:46.445Z,3.82
2018-12-19T20:39:13.970Z,3.83
2018-12-19T20:41:41.522Z,3.85
2018-12-19T20:44:09.110Z,3.82
2018-12-19T20:46:36.694Z,3.88
2018-12-19T20:49:04.343Z,3.88
2018-12-19T20:51:31.898Z,3.88
2018-12-19T20:53:59.481Z,3.85
2018-12-19T20:56:27.108Z,3.89
2018-12-19T20:58:54.779Z,3.86
2018-12-19T21:01:22.432Z,3.87
2018-12-19T21:03:50.097Z,3.87
2018-12-19T21:06:17.662Z,3.85
2018-12-19T21:08:45.176Z,3.89
2018-12-19T21:11:12.694Z,3.87
2018-12-19T21:13:46.537Z,3.82
2018-12-19T21:16:10.560Z,3.79
2018-12-19T21:18:43.053Z,3.85
2018-12-19T21:21:10.574Z,3.85
2018-12-19T21:23:38.124Z,3.85
2018-12-19T21:26:05.816Z,3.86
2018-12-19T21:28:33.415Z,3.83
2018-12-19T21:31:01.041Z,3.86
2018-12-19T21:33:28.617Z,3.80
2018-12-19T21:35:56.184Z,3.84
2018-12-19T21:38:23.742Z,3.87
2018-12-19T21:40:51.245Z,3.80
2018-12-19T21:43:18.842Z,3.82
2018-12-19T21:45:51.690Z,3.80
2018-12-19T21:48:15.988Z,3.80
2018-12-19T21:50:43.612Z,3.84
2018-12-19T21:53:11.150Z,3.84
2018-12-19T21:55:38.693Z,3.86
2018-12-19T21:58:06.191Z,3.84
2018-12-19T22:00:35.526Z,3.85
2018-12-19T22:03:05.001Z,3.85
2018-12-19T22:05:32.652Z,3.81
2018-12-19T22:08:00.396Z,3.79
2018-12-19T22:10:27.953Z,3.79
2018-12-19T22:12:55.721Z,3.83
2018-12-19T22:15:23.325Z,3.82
2018-12-19T22:17:52.877Z,3.82
2018-12-19T22:20:20.405Z,3.81
2018-12-19T22:22:47.963Z,3.82
2018-12-19T22:25:15.556Z,3.84
2018-12-19T22:27:43.120Z,3.84
2018-12-19T22:30:10.719Z,3.85
2018-12-19T22:32:38.308Z,3.86
2018-12-19T22:35:05.855Z,3.86
2018-12-19T22:37:33.396Z,3.85
2018-12-19T22:40:00.989Z,3.85
2018-12-19T22:42:28.494Z,3.86
2018-12-19T22:44:55.993Z,3.84
2018-12-19T22:47:23.594Z,3.82
2018-12-19T22:49:51.184Z,3.85
2018-12-19T22:52:19.225Z,3.85
2018-12-19T22:54:46.886Z,3.84
2018-12-19T22:57:14.445Z,3.85
2018-12-19T22:59:42.005Z,3.83
2018-12-19T23:02:15.062Z,3.95
2018-12-19T23:04:42.720Z,3.90
2018-12-19T23:07:10.389Z,3.86
2018-12-19T23:09:37.893Z,3.85
2018-12-19T23:12:05.506Z,3.88
2018-12-19T23:14:33.130Z,3.83
2018-12-19T23:17:02.723Z,3.87
2018-12-19T23:19:30.244Z,3.82
2018-12-19T23:21:57.835Z,3.88
2018-12-19T23:24:25.395Z,3.88
2018-12-19T23:26:52.922Z,3.88
2018-12-19T23:29:20.534Z,3.91
2018-12-19T23:31:48.114Z,3.92
2018-12-19T23:34:15.752Z,3.91
2018-12-19T23:36:43.343Z,3.91
2018-12-19T23:39:10.848Z,3.89
2018-12-19T23:41:38.351Z,3.94
2018-12-19T23:44:06.411Z,3.92
2018-12-19T23:46:34.560Z,3.94
2018-12-19T23:49:02.130Z,3.92
2018-12-19T23:51:29.979Z,3.91
2018-12-19T23:53:57.776Z,3.94
2018-12-19T23:56:25.386Z,3.89
2018-12-19T23:58:53.123Z,3.94
